Currently 57°F in Riverside (Presidential Park), California, USA
57°F
64°F / 57°F
calm
0.00"
Friday, April 26, 2019 5:39 AM PDT

Riverside (Presidential Park), California Weather Summary
Last 36 Hours

Temperature Winds Hourly Humidity Dewpoint
Time Report Norm Report Norm Max Gusts Precip. Rpt. Norm Rpt. Norm Pressure
1Fri 05:39 AM  56.9°F  56°F  calm  1 mph  none  0.00"  82%  73%  51°F  47°F  29.96"
3Fri 05:19 AM  56.6°F  56°F  calm  2 mph  none  ----  81%  72%  51°F  47°F  29.95"
Fri 05:00 AM  57.1°F  56°F  calm  1 mph  2 mph  0.00"  81%  72%  51°F  47°F  29.96"
Fri 04:00 AM  58.3°F  57°F  calm  2 mph  3 mph  0.00"  81%  71%  52°F  47°F  29.96"
Fri 03:00 AM  59.5°F  57°F  2 mph SE  2 mph  4 mph  0.00"  80%  70%  53°F  47°F  29.96"
Fri 02:00 AM  60.6°F  58°F  2 mph SE  2 mph  2 mph  0.00"  70%  68%  50°F  47°F  29.96"
Fri 01:00 AM  62.1°F  59°F  calm  2 mph  2 mph  0.00"  69%  66%  51°F  48°F  29.96"
2Fri 12:05 AM  63.9°F  61°F  calm  2 mph  2 mph  ----  68%  63%  53°F  48°F  29.96"
Fri 12:00 AM  63.8°F  61°F  calm  2 mph  4 mph  0.00"  68%  63%  53°F  48°F  29.97"
Thu 11:00 PM  65.6°F  62°F  1 mph S  2 mph  3 mph  0.00"  61%  60%  52°F  48°F  29.96"
Thu 10:00 PM  67.8°F  64°F  2 mph SE  2 mph  4 mph  0.00"  54%  56%  50°F  47°F  29.96"
Thu 09:00 PM  69.4°F  66°F  1 mph SW  3 mph  8 mph  0.00"  48%  51%  48°F  47°F  29.95"
Thu 08:00 PM  72.4°F  68°F  4 mph W  5 mph  9 mph  0.00"  45%  47%  49°F  47°F  29.93"
Thu 07:00 PM  78.3°F  72°F  6 mph SW  6 mph  12 mph  0.00"  30%  42%  43°F  46°F  29.91"
Thu 06:00 PM  80.7°F  74°F  7 mph W  8 mph  14 mph  0.00"  26%  37%  41°F  46°F  29.90"
Thu 05:00 PM  82.9°F  76°F  7 mph SW  9 mph  15 mph  0.00"  20%  35%  37°F  46°F  29.89"
Thu 04:00 PM  83.3°F  77°F  7 mph NW  9 mph  15 mph  0.00"  26%  34%  44°F  46°F  29.89"
Thu 03:00 PM  84.2°F  78°F  9 mph W  7 mph  14 mph  0.00"  24%  33%  43°F  45°F  29.90"
Thu 02:00 PM  84.0°F  77°F  10 mph W  6 mph  12 mph  0.00"  31%  34%  49°F  46°F  29.91"
Thu 01:00 PM  82.2°F  76°F  5 mph W  6 mph  10 mph  0.00"  31%  36%  48°F  46°F  29.93"
Thu 12:00 PM  79.7°F  73°F  4 mph W  5 mph  9 mph  0.00"  39%  40%  52°F  46°F  29.95"
Thu 11:00 AM  74.9°F  70°F  3 mph W  4 mph  7 mph  0.00"  49%  46%  53°F  48°F  29.96"
Thu 10:00 AM  70.0°F  67°F  1 mph W  3 mph  6 mph  0.00"  58%  54%  54°F  49°F  29.96"
Thu 09:00 AM  65.6°F  63°F  2 mph S  2 mph  4 mph  0.00"  69%  62%  55°F  49°F  29.96"
Thu 08:00 AM  60.4°F  59°F  1 mph S  2 mph  3 mph  0.00"  79%  71%  53°F  49°F  29.97"
Thu 07:00 AM  57.1°F  55°F  calm  1 mph  3 mph  0.00"  79%  75%  50°F  47°F  29.96"
Thu 06:00 AM  57.0°F  55°F  calm  1 mph  2 mph  0.00"  77%  74%  50°F  47°F  29.95"
Thu 05:00 AM  57.9°F  56°F  2 mph SE  1 mph  2 mph  0.00"  76%  73%  50°F  47°F  29.93"
Thu 04:00 AM  58.4°F  56°F  calm  2 mph  2 mph  0.00"  73%  72%  50°F  47°F  29.93"
Thu 03:00 AM  59.7°F  57°F  calm  2 mph  2 mph  0.00"  71%  71%  50°F  47°F  29.94"
Thu 02:00 AM  61.0°F  58°F  1 mph SE  2 mph  none  0.00"  70%  69%  51°F  47°F  29.95"
Thu 01:00 AM  62.4°F  59°F  calm  2 mph  3 mph  0.00"  67%  67%  51°F  47°F  29.96"
Thu 12:00 AM  63.9°F  60°F  2 mph SE  2 mph  3 mph  0.00"  64%  64%  51°F  47°F  29.96"
Wed 11:00 PM  65.7°F  62°F  2 mph SE  2 mph  4 mph  0.00"  62%  60%  52°F  48°F  29.96"
Wed 10:00 PM  68.0°F  64°F  calm  2 mph  5 mph  0.00"  57%  56%  52°F  47°F  29.95"
Wed 09:00 PM  70.9°F  66°F  2 mph SW  3 mph  7 mph  0.00"  50%  52%  51°F  47°F  29.93"
Wed 08:00 PM  73.3°F  68°F  5 mph W  5 mph  11 mph  0.00"  42%  47%  48°F  47°F  29.91"
Wed 07:00 PM  77.5°F  71°F  7 mph SW  6 mph  13 mph  0.00"  37%  42%  48°F  46°F  29.90"
Wed 06:00 PM  80.4°F  74°F  9 mph W  8 mph  15 mph  0.00"  30%  37%  45°F  46°F  29.89"

  1. Current weather data. No green row appears if the current weather data is also the high or low for the current day.
  2. High temperature for the current day.
  3. Low temperature for the current day.

The Riverside (Presidential Park), California weather pages are a service of WeatherCurrents.
Copyright ©2019  WeatherCurrents. All rights reserved. - Submit questions and comments - Privacy Policy

This page automatically refreshes every 10 minutes.